EmailTwitter


Observations de surface / Québec / LFRD

Régions: Québec | Canada | États-Unis | Europe | France | UK | Elsewhere
Station
Affichage
Infos & localisation pour LFRD | Aide pour décoder les METARs

Observations prises le 2017-05-26 à 01H30 UTC à DINARD/PLEURTUIT, FR (LFRD)

Température: 14.0 Celsius

Point de rosée: 12.0 Celsius

Humidité relative: 88%

Vents: Est-sud-est à 4 km/h ou 2 noeuds.

Pression au niveau moyen de la mer: 101.60 kilopascals.

Observation METAR:

LFRD 260130Z AUTO 11002KT CAVOK 14/12 Q1016 NOSIG=